createdAt,value
2019-04-01T00:01:36.307Z,37.63
2019-04-01T00:04:20.920Z,41.70
2019-04-01T00:07:05.716Z,39.27
2019-04-01T00:09:52.468Z,32.70
2019-04-01T00:12:37.159Z,37.60
2019-04-01T00:15:21.982Z,39.90
2019-04-01T00:18:06.796Z,34.70
2019-04-01T00:20:51.396Z,45.30
2019-04-01T00:23:36.198Z,37.37
2019-04-01T00:26:20.959Z,37.13
2019-04-01T00:29:05.700Z,39.03
2019-04-01T00:31:50.567Z,36.37
2019-04-01T00:34:35.272Z,33.77
2019-04-01T00:37:20.751Z,37.90
2019-04-01T00:40:05.275Z,34.80
2019-04-01T00:42:57.696Z,32.37
2019-04-01T00:45:44.072Z,34.50
2019-04-01T00:48:28.843Z,36.33
2019-04-01T00:51:13.499Z,33.20
2019-04-01T00:53:58.007Z,32.80
2019-04-01T00:56:42.688Z,35.93
2019-04-01T00:59:27.443Z,38.73
2019-04-01T01:02:12.307Z,32.83
2019-04-01T01:04:56.908Z,33.27
2019-04-01T01:07:41.833Z,35.73
2019-04-01T01:10:26.627Z,41.73
2019-04-01T01:13:11.580Z,35.70
2019-04-01T01:15:55.959Z,35.63
2019-04-01T01:18:40.753Z,37.60
2019-04-01T01:21:25.467Z,34.67
2019-04-01T01:24:10.312Z,35.83
2019-04-01T01:26:54.983Z,41.77
2019-04-01T01:29:39.748Z,37.13
2019-04-01T01:32:25.663Z,37.60
2019-04-01T01:35:10.122Z,34.73
2019-04-01T01:37:54.971Z,38.50
2019-04-01T01:40:39.726Z,35.67
2019-04-01T01:43:24.373Z,44.75
2019-04-01T01:46:09.136Z,37.70
2019-04-01T01:48:54.039Z,38.87
2019-04-01T01:51:38.745Z,37.60
2019-04-01T01:54:23.248Z,38.00
2019-04-01T01:57:07.943Z,36.40
2019-04-01T01:59:52.767Z,38.30
2019-04-01T02:02:37.671Z,46.47
2019-04-01T02:05:22.121Z,34.27
2019-04-01T02:08:07.034Z,36.43
2019-04-01T02:10:51.759Z,43.50
2019-04-01T02:13:36.609Z,39.47
2019-04-01T02:16:21.267Z,41.53
2019-04-01T02:19:06.132Z,40.63
2019-04-01T02:21:50.872Z,41.37
2019-04-01T02:24:35.340Z,39.93
2019-04-01T02:27:20.445Z,38.43
2019-04-01T02:30:05.214Z,39.53
2019-04-01T02:32:50.043Z,41.00
2019-04-01T02:35:34.437Z,35.90
2019-04-01T02:38:19.279Z,43.27
2019-04-01T02:41:04.036Z,41.87
2019-04-01T02:43:48.950Z,34.20
2019-04-01T02:46:33.542Z,35.70
2019-04-01T02:49:18.328Z,50.00
2019-04-01T02:52:03.079Z,38.87
2019-04-01T02:54:47.704Z,40.40
2019-04-01T02:57:32.142Z,42.27
2019-04-01T03:00:16.806Z,39.17
2019-04-01T03:03:01.845Z,42.43
2019-04-01T03:05:46.517Z,39.57
2019-04-01T03:08:31.503Z,40.10
2019-04-01T03:11:16.320Z,43.73
2019-04-01T03:14:01.972Z,36.63
2019-04-01T03:16:46.693Z,41.87
2019-04-01T03:19:31.425Z,39.93
2019-04-01T03:22:16.093Z,39.67
2019-04-01T03:25:02.207Z,34.33
2019-04-01T03:27:47.099Z,39.27
2019-04-01T03:30:31.810Z,42.53
2019-04-01T03:33:16.833Z,41.30
2019-04-01T03:36:01.847Z,40.87
2019-04-01T03:38:46.632Z,40.80
2019-04-01T03:41:31.400Z,46.17
2019-04-01T03:44:16.132Z,41.80
2019-04-01T03:47:00.820Z,39.97
2019-04-01T03:49:45.368Z,44.37
2019-04-01T03:52:30.096Z,43.85
2019-04-01T03:55:14.823Z,42.27
2019-04-01T03:57:59.632Z,45.13
2019-04-01T04:00:25.908Z,43.70
2019-04-01T04:03:10.359Z,39.70
2019-04-01T04:05:55.018Z,41.00
2019-04-01T04:08:39.976Z,41.67
2019-04-01T04:11:24.679Z,48.10
2019-04-01T04:14:09.286Z,44.97
2019-04-01T04:16:54.006Z,41.77
2019-04-01T04:19:38.890Z,41.93
2019-04-01T04:22:23.705Z,40.93
2019-04-01T04:25:08.499Z,39.37
2019-04-01T04:27:53.133Z,37.60
2019-04-01T04:30:37.792Z,45.07
2019-04-01T04:33:22.461Z,44.57
2019-04-01T04:36:07.144Z,41.97
2019-04-01T04:38:51.878Z,51.57
2019-04-01T04:41:36.234Z,46.83
2019-04-01T04:44:20.916Z,47.17
2019-04-01T04:47:07.320Z,49.20
2019-04-01T04:49:51.850Z,49.37
2019-04-01T04:52:36.487Z,48.50
2019-04-01T04:55:21.545Z,45.07
2019-04-01T04:58:07.249Z,47.93
2019-04-01T05:00:52.152Z,44.20
2019-04-01T05:03:36.998Z,53.00
2019-04-01T05:06:21.516Z,53.53
2019-04-01T05:09:06.373Z,50.67
2019-04-01T05:11:51.019Z,48.93
2019-04-01T05:14:36.005Z,46.17
2019-04-01T05:17:20.978Z,49.63
2019-04-01T05:20:05.760Z,49.17
2019-04-01T05:22:51.545Z,45.13
2019-04-01T05:25:36.215Z,44.50
2019-04-01T05:28:21.050Z,52.23
2019-04-01T05:31:05.792Z,51.87
2019-04-01T05:33:55.517Z,39.23
2019-04-01T05:36:37.203Z,43.83
2019-04-01T05:39:22.584Z,43.50
2019-04-01T05:42:07.232Z,49.77
2019-04-01T05:44:46.659Z,46.17
2019-04-01T05:47:32.991Z,38.93
2019-04-01T05:50:17.528Z,44.27
2019-04-01T05:53:02.280Z,43.20
2019-04-01T05:55:46.803Z,41.67
2019-04-01T05:58:31.488Z,42.70
2019-04-01T06:01:18.115Z,47.03
2019-04-01T06:04:03.059Z,42.33
2019-04-01T06:06:49.036Z,42.90
2019-04-01T06:09:33.923Z,46.23
2019-04-01T06:12:18.624Z,50.70
2019-04-01T06:15:03.187Z,39.30
2019-04-01T06:17:47.999Z,44.90
2019-04-01T06:20:32.503Z,39.70
2019-04-01T06:23:17.251Z,40.90
2019-04-01T06:26:01.698Z,41.93
2019-04-01T06:28:46.511Z,39.20
2019-04-01T06:31:31.311Z,37.90
2019-04-01T06:34:16.247Z,35.63
2019-04-01T06:37:01.927Z,35.17
2019-04-01T06:39:46.512Z,36.63
2019-04-01T06:42:31.239Z,39.67
2019-04-01T06:45:15.939Z,37.27
2019-04-01T06:48:01.980Z,45.08
2019-04-01T06:50:46.394Z,40.90
2019-04-01T06:53:31.268Z,33.93
2019-04-01T06:56:15.939Z,42.57
2019-04-01T06:59:00.491Z,37.53
2019-04-01T07:01:45.211Z,42.47
2019-04-01T07:04:29.867Z,44.83
2019-04-01T07:07:19.392Z,33.03
2019-04-01T07:10:01.343Z,36.07
2019-04-01T07:12:46.221Z,37.93
2019-04-01T07:15:31.025Z,36.67
2019-04-01T07:18:15.812Z,34.10
2019-04-01T07:21:01.092Z,42.97
2019-04-01T07:23:45.592Z,38.00
2019-04-01T07:26:30.263Z,40.07
2019-04-01T07:29:09.829Z,31.60
2019-04-01T07:31:54.307Z,34.13
2019-04-01T07:34:39.279Z,34.43
2019-04-01T07:37:24.089Z,36.43
2019-04-01T07:40:08.832Z,33.07
2019-04-01T07:42:53.620Z,36.77
2019-04-01T07:45:38.432Z,32.80
2019-04-01T07:48:23.100Z,39.37
2019-04-01T07:51:07.574Z,36.33
2019-04-01T07:53:52.028Z,30.20
2019-04-01T07:56:36.774Z,38.17
2019-04-01T07:59:21.465Z,34.77
2019-04-01T08:02:05.923Z,37.07
2019-04-01T08:04:50.759Z,37.33
2019-04-01T08:07:35.590Z,38.10
2019-04-01T08:10:21.125Z,38.97
2019-04-01T08:13:05.607Z,37.27
2019-04-01T08:15:50.430Z,36.10
2019-04-01T08:18:35.273Z,34.90
2019-04-01T08:21:21.041Z,34.33
2019-04-01T08:24:05.739Z,37.33
2019-04-01T08:26:50.384Z,37.70
2019-04-01T08:29:35.146Z,36.47
2019-04-01T08:32:21.360Z,38.03
2019-04-01T08:35:06.168Z,35.73
2019-04-01T08:37:50.885Z,36.73
2019-04-01T08:40:36.648Z,38.07
2019-04-01T08:43:21.031Z,37.73
2019-04-01T08:46:05.735Z,32.37
2019-04-01T08:48:50.631Z,36.73
2019-04-01T08:51:35.315Z,37.33
2019-04-01T08:54:20.506Z,38.47
2019-04-01T08:57:04.960Z,35.30
2019-04-01T08:59:49.864Z,35.13
2019-04-01T09:02:34.336Z,27.73
2019-04-01T09:05:19.176Z,34.37
2019-04-01T09:08:03.828Z,37.73
2019-04-01T09:10:48.543Z,32.83
2019-04-01T09:13:32.945Z,33.07
2019-04-01T09:16:17.724Z,31.63
2019-04-01T09:19:02.381Z,32.27
2019-04-01T09:21:47.180Z,31.60
2019-04-01T09:24:31.803Z,35.77
2019-04-01T09:27:16.500Z,36.97
2019-04-01T09:30:01.606Z,30.43
2019-04-01T09:32:46.265Z,28.63
2019-04-01T09:35:30.900Z,29.57
2019-04-01T09:38:15.527Z,36.47
2019-04-01T09:41:00.179Z,33.37
2019-04-01T09:43:45.007Z,33.10
2019-04-01T09:46:29.471Z,33.23
2019-04-01T09:49:14.170Z,28.07
2019-04-01T09:51:58.844Z,32.63
2019-04-01T09:54:43.444Z,34.57
2019-04-01T09:57:28.091Z,31.47
2019-04-01T10:00:12.986Z,30.97
2019-04-01T10:02:57.716Z,31.93
2019-04-01T10:05:42.448Z,29.10
2019-04-01T10:08:41.432Z,30.37
2019-04-01T10:11:13.792Z,32.30
2019-04-01T10:13:58.427Z,37.83
2019-04-01T10:16:42.952Z,31.70
2019-04-01T10:19:27.414Z,34.63
2019-04-01T10:22:12.109Z,32.63
2019-04-01T10:24:56.968Z,34.00
2019-04-01T10:27:41.555Z,30.00
2019-04-01T10:30:26.525Z,31.57
2019-04-01T10:33:11.240Z,29.90
2019-04-01T10:35:56.059Z,31.33
2019-04-01T10:38:40.609Z,30.80
2019-04-01T10:41:25.001Z,29.63
2019-04-01T10:44:09.623Z,28.57
2019-04-01T10:46:54.427Z,27.00
2019-04-01T10:49:38.957Z,25.63
2019-04-01T10:52:23.754Z,31.23
2019-04-01T10:55:08.537Z,30.33
2019-04-01T10:57:54.061Z,32.50
2019-04-01T11:00:39.192Z,34.53
2019-04-01T11:03:24.056Z,28.30
2019-04-01T11:06:08.596Z,31.47
2019-04-01T11:08:53.171Z,32.83
2019-04-01T11:11:37.888Z,30.33
2019-04-01T11:14:22.988Z,30.53
2019-04-01T11:17:07.892Z,28.73
2019-04-01T11:19:52.447Z,31.83
2019-04-01T11:22:37.188Z,28.60
2019-04-01T11:25:22.000Z,29.70
2019-04-01T11:28:06.741Z,26.20
2019-04-01T11:30:52.627Z,32.93
2019-04-01T11:33:37.413Z,33.67
2019-04-01T11:36:22.152Z,26.77
2019-04-01T11:39:06.936Z,21.50
2019-04-01T11:41:51.655Z,31.90
2019-04-01T11:44:36.072Z,28.03
2019-04-01T11:47:22.270Z,25.87
2019-04-01T11:50:07.606Z,28.00
2019-04-01T11:52:52.016Z,31.17
2019-04-01T11:55:36.651Z,26.70
2019-04-01T11:58:21.284Z,29.43
2019-04-01T12:01:06.099Z,27.23
2019-04-01T12:03:50.568Z,27.33
2019-04-01T12:06:35.271Z,28.13
2019-04-01T12:09:20.354Z,21.73
2019-04-01T12:12:05.046Z,24.97
2019-04-01T12:14:49.512Z,25.97
2019-04-01T12:17:34.284Z,25.63
2019-04-01T12:20:19.164Z,23.40
2019-04-01T12:23:03.862Z,21.60
2019-04-01T12:25:48.593Z,23.67
2019-04-01T12:28:36.466Z,28.10
2019-04-01T12:31:21.597Z,23.37
2019-04-01T12:34:06.392Z,20.87
2019-04-01T12:36:51.208Z,23.73
2019-04-01T12:39:36.379Z,25.63
2019-04-01T12:42:20.988Z,22.20
2019-04-01T12:45:05.638Z,23.67
2019-04-01T12:47:50.317Z,22.70
2019-04-01T12:50:35.100Z,25.07
2019-04-01T12:53:20.901Z,23.87
2019-04-01T12:56:05.354Z,24.93
2019-04-01T12:58:50.162Z,24.98
2019-04-01T13:01:35.060Z,21.60
2019-04-01T13:04:21.355Z,20.73
2019-04-01T13:07:05.941Z,24.17
2019-04-01T13:09:51.515Z,22.43
2019-04-01T13:12:36.347Z,23.17
2019-04-01T13:15:21.040Z,23.17
2019-04-01T13:18:05.723Z,24.37
2019-04-01T13:20:51.912Z,22.17
2019-04-01T13:23:37.086Z,24.83
2019-04-01T13:26:21.490Z,27.60
2019-04-01T13:29:06.187Z,24.83
2019-04-01T13:31:51.307Z,28.03
2019-04-01T13:34:36.227Z,25.60
2019-04-01T13:37:20.964Z,23.00
2019-04-01T13:40:05.423Z,22.53
2019-04-01T13:42:50.226Z,19.67
2019-04-01T13:45:35.048Z,20.03
2019-04-01T13:48:20.481Z,20.10
2019-04-01T13:51:04.892Z,19.20
2019-04-01T13:53:49.737Z,18.67
2019-04-01T13:56:34.443Z,21.83
2019-04-01T13:59:19.171Z,20.83
2019-04-01T14:02:03.670Z,19.10
2019-04-01T14:04:48.252Z,17.73
2019-04-01T14:07:32.931Z,20.37
2019-04-01T14:10:17.722Z,21.93
2019-04-01T14:13:02.124Z,21.57
2019-04-01T14:15:46.862Z,23.27
2019-04-01T14:18:31.576Z,18.50
2019-04-01T14:21:20.500Z,16.30
2019-04-01T14:24:02.810Z,21.60
2019-04-01T14:26:47.534Z,22.57
2019-04-01T14:29:32.296Z,20.10
2019-04-01T14:32:18.207Z,19.60
2019-04-01T14:35:03.662Z,18.07
2019-04-01T14:37:49.651Z,17.53
2019-04-01T14:40:34.268Z,16.50
2019-04-01T14:43:19.092Z,20.33
2019-04-01T14:46:03.965Z,27.90
2019-04-01T14:48:48.547Z,17.83
2019-04-01T14:51:33.212Z,19.03
2019-04-01T14:54:20.543Z,22.57
2019-04-01T14:57:04.163Z,19.97
2019-04-01T14:59:48.876Z,15.03
2019-04-01T15:02:33.950Z,18.13
2019-04-01T15:05:18.706Z,17.37
2019-04-01T15:08:03.617Z,17.60
2019-04-01T15:12:12.554Z,23.13
2019-04-01T15:14:57.245Z,24.35
2019-04-01T15:17:41.986Z,95.87
2019-04-01T15:20:26.693Z,22.40
2019-04-01T15:23:11.239Z,20.17
2019-04-01T15:25:55.825Z,17.13
2019-04-01T15:28:40.599Z,14.63
2019-04-01T15:31:25.761Z,14.73
2019-04-01T15:34:10.549Z,17.97
2019-04-01T15:36:55.408Z,17.00
2019-04-01T15:39:40.065Z,15.67
2019-04-01T15:42:06.360Z,16.13
2019-04-01T15:44:32.635Z,15.00
2019-04-01T15:46:58.928Z,16.00
2019-04-01T15:49:25.207Z,23.00
2019-04-01T15:52:09.701Z,15.83
2019-04-01T15:54:57.679Z,15.48
2019-04-01T15:57:41.055Z,15.18
2019-04-01T16:00:25.856Z,14.43
2019-04-01T16:03:10.627Z,14.03
2019-04-01T16:05:55.236Z,20.95
2019-04-01T16:08:40.178Z,23.18
2019-04-01T16:11:24.699Z,15.40
2019-04-01T16:14:11.102Z,16.07
2019-04-01T16:16:55.889Z,14.83
2019-04-01T16:19:40.552Z,15.08
2019-04-01T16:22:25.323Z,19.15
2019-04-01T16:25:09.759Z,18.27
2019-04-01T16:27:54.650Z,16.65
2019-04-01T16:30:39.327Z,16.40
2019-04-01T16:33:24.223Z,16.95
2019-04-01T16:36:08.680Z,15.72
2019-04-01T16:38:53.575Z,13.85
2019-04-01T16:41:38.251Z,15.68
2019-04-01T16:44:23.116Z,15.20
2019-04-01T16:47:07.601Z,17.30
2019-04-01T16:49:52.295Z,15.83
2019-04-01T16:52:36.949Z,15.90
2019-04-01T16:55:21.676Z,16.50
2019-04-01T16:58:06.655Z,16.20
2019-04-01T17:00:50.988Z,21.97
2019-04-01T17:03:35.606Z,17.60
2019-04-01T17:06:20.497Z,17.00
2019-04-01T17:09:05.363Z,19.17
2019-04-01T17:11:50.144Z,16.63
2019-04-01T17:14:34.852Z,20.53
2019-04-01T17:17:20.184Z,19.30
2019-04-01T17:20:05.019Z,17.57
2019-04-01T17:22:50.821Z,15.40
2019-04-01T17:29:05.427Z,17.35
2019-04-01T17:31:49.948Z,18.70
2019-04-01T17:34:34.847Z,18.50
2019-04-01T17:37:20.227Z,17.10
2019-04-01T17:40:05.034Z,19.73
2019-04-01T17:42:49.629Z,15.17
2019-04-01T17:45:34.380Z,24.27
2019-04-01T17:48:19.072Z,19.33
2019-04-01T17:51:03.916Z,18.60
2019-04-01T17:53:48.451Z,16.93
2019-04-01T17:56:34.279Z,15.90
2019-04-01T17:59:20.969Z,19.20
2019-04-01T18:03:29.786Z,20.83
2019-04-01T18:05:55.590Z,19.43
2019-04-01T18:11:39.532Z,19.80
2019-04-01T18:14:24.131Z,21.13
2019-04-01T18:16:50.423Z,24.37
2019-04-01T18:19:16.761Z,17.27
2019-04-01T18:21:43.061Z,17.33
2019-04-01T18:24:09.342Z,18.10
2019-04-01T18:26:35.675Z,15.37
2019-04-01T18:29:28.705Z,30.10
2019-04-01T18:31:55.087Z,18.30
2019-04-01T18:34:21.376Z,23.93
2019-04-01T18:36:47.659Z,23.90
2019-04-01T18:39:15.101Z,20.27
2019-04-01T18:41:41.631Z,22.73
2019-04-01T18:44:07.908Z,20.33
2019-04-01T18:46:34.204Z,22.67
2019-04-01T18:49:00.491Z,23.77
2019-04-01T18:51:26.792Z,21.70
2019-04-01T18:53:53.063Z,19.37
2019-04-01T18:56:19.472Z,17.87
2019-04-01T18:58:45.743Z,22.10
2019-04-01T19:01:12.044Z,22.37
2019-04-01T19:03:39.486Z,21.80
2019-04-01T19:06:07.487Z,16.93
2019-04-01T19:08:34.115Z,19.40
2019-04-01T19:11:02.749Z,19.37
2019-04-01T19:13:29.220Z,18.97
2019-04-01T19:15:55.794Z,22.00
2019-04-01T19:18:22.571Z,23.47
2019-04-01T19:20:56.142Z,20.63
2019-04-01T19:23:17.109Z,29.10
2019-04-01T19:25:43.397Z,25.13
2019-04-01T19:28:09.671Z,18.93
2019-04-01T19:30:35.998Z,19.53
2019-04-01T19:33:02.284Z,23.20
2019-04-01T19:35:28.580Z,31.63
2019-04-01T19:37:55.315Z,26.10
2019-04-01T19:40:23.155Z,22.73
2019-04-01T19:42:49.848Z,22.70
2019-04-01T19:45:16.120Z,25.97
2019-04-01T19:47:42.415Z,25.73
2019-04-01T19:50:08.695Z,20.77
2019-04-01T19:52:35.007Z,25.90
2019-04-01T19:55:03.276Z,18.57
2019-04-01T19:57:48.184Z,31.57
2019-04-01T20:00:32.665Z,22.53
2019-04-01T20:03:17.471Z,21.03
2019-04-01T20:06:02.267Z,25.37
2019-04-01T20:08:49.677Z,24.70
2019-04-01T20:11:33.711Z,25.50
2019-04-01T20:14:18.160Z,23.60
2019-04-01T20:17:02.836Z,26.37
2019-04-01T20:19:47.545Z,24.25
2019-04-01T20:22:27.416Z,28.50
2019-04-01T20:25:12.352Z,21.40
2019-04-01T20:27:57.092Z,28.63
2019-04-01T20:30:42.643Z,21.57
2019-04-01T20:33:27.538Z,24.47
2019-04-01T20:36:12.020Z,28.97
2019-04-01T20:38:56.740Z,27.20
2019-04-01T20:41:41.412Z,19.90
2019-04-01T20:44:26.251Z,24.27
2019-04-01T20:47:10.817Z,25.10
2019-04-01T20:49:56.902Z,26.17
2019-04-01T20:52:41.523Z,22.57
2019-04-01T20:55:26.020Z,27.82
2019-04-01T20:58:11.007Z,26.83
2019-04-01T21:00:55.446Z,28.47
2019-04-01T21:03:40.224Z,22.07
2019-04-01T21:06:24.732Z,24.80
2019-04-01T21:09:09.489Z,24.60
2019-04-01T21:11:54.252Z,28.50
2019-04-01T21:14:39.148Z,28.63
2019-04-01T21:17:24.000Z,33.97
2019-04-01T21:20:09.335Z,27.20
2019-04-01T21:22:54.052Z,29.37
2019-04-01T21:25:38.508Z,25.80
2019-04-01T21:28:24.932Z,24.37
2019-04-01T21:31:09.684Z,25.83
2019-04-01T21:33:54.392Z,23.57
2019-04-01T21:36:39.076Z,29.17
2019-04-01T21:39:24.080Z,29.50
2019-04-01T21:42:08.611Z,27.97
2019-04-01T21:44:53.411Z,24.13
2019-04-01T21:47:38.115Z,29.30
2019-04-01T21:50:22.702Z,25.90
2019-04-01T21:53:07.379Z,24.07
2019-04-01T21:55:52.096Z,26.53
2019-04-01T21:58:36.744Z,30.50
2019-04-01T22:01:21.285Z,25.80
2019-04-01T22:04:05.693Z,27.17
2019-04-01T22:06:56.492Z,27.17
2019-04-01T22:09:39.421Z,27.90
2019-04-01T22:12:24.123Z,25.47
2019-04-01T22:15:08.890Z,28.80
2019-04-01T22:17:53.558Z,27.60
2019-04-01T22:20:39.385Z,30.57
2019-04-01T22:23:24.823Z,24.77
2019-04-01T22:26:09.453Z,25.37
2019-04-01T22:28:54.268Z,26.23
2019-04-01T22:31:39.117Z,22.90
2019-04-01T22:34:23.943Z,25.03
2019-04-01T22:37:08.673Z,24.10
2019-04-01T22:39:53.569Z,23.60
2019-04-01T22:42:38.032Z,23.80
2019-04-01T22:45:22.680Z,27.97
2019-04-01T22:48:07.484Z,23.87
2019-04-01T22:50:52.115Z,23.00
2019-04-01T22:53:36.757Z,22.07
2019-04-01T22:56:21.600Z,21.93
2019-04-01T22:59:06.484Z,22.07
2019-04-01T23:01:51.121Z,23.70
2019-04-01T23:04:37.047Z,24.87
2019-04-01T23:07:21.620Z,26.67
2019-04-01T23:10:06.311Z,24.43
2019-04-01T23:12:51.130Z,22.67
2019-04-01T23:15:36.235Z,23.50
2019-04-01T23:18:21.239Z,25.70
2019-04-01T23:21:05.672Z,21.77
2019-04-01T23:23:50.305Z,26.20
2019-04-01T23:26:35.023Z,23.17
2019-04-01T23:29:22.066Z,24.20
2019-04-01T23:32:06.668Z,21.43
2019-04-01T23:34:51.083Z,29.23
2019-04-01T23:37:35.895Z,28.17
2019-04-01T23:40:20.855Z,24.93
2019-04-01T23:43:05.779Z,27.47
2019-04-01T23:45:50.494Z,19.27
2019-04-01T23:48:35.307Z,21.93
2019-04-01T23:51:20.693Z,23.30
2019-04-01T23:54:05.583Z,27.80
2019-04-01T23:56:49.982Z,24.60
2019-04-01T23:59:34.699Z,30.70
